Time;durP1;ratioP1;P1;durP2;ratioP2;P2;SDS_P1;SDS_P2;PMS_P1;PMS_P2;Temp;Humidity;BMP_temperature;BMP_pressure;BME280_temperature;BME280_humidity;BME280_pressure;Samples;Min_cycle;Max_cycle;Signal;HPM_P1;HPM_P2
2021/11/17 02:26:17;;;;;;;5.72;1.63;;;;;;;;;;5013181;28;20444;-75
2021/11/17 02:29:05;;;;;;;5.88;1.08;;;;;;;;;;5012983;28;20477;-75
2021/11/17 02:31:45;;;;;;;6.90;1.27;;;;;;;;;;5013055;28;20046;-76
2021/11/17 02:34:32;;;;;;;4.22;1.20;;;;;;;;;;5013250;28;20497;-75
2021/11/17 02:37:35;;;;;;;5.40;0.93;;;;;;;;;;5012965;28;20038;-75
2021/11/17 02:40:06;;;;;;;5.38;1.48;;;;;;;;;;5013139;28;20048;-74
2021/11/17 02:42:53;;;;;;;2.75;1.20;;;;;;;;;;4995303;28;20500;-75
2021/11/17 02:45:20;;;;;;;6.50;1.35;;;;;;;;;;5012909;28;20152;-76
2021/11/17 02:48:11;;;;;;;3.17;1.10;;;;;;;;;;4995541;28;20044;-74
2021/11/17 02:50:38;;;;;;;2.20;0.95;;;;;;;;;;5016100;28;20117;-75
2021/11/17 02:53:20;;;;;;;3.80;1.20;;;;;;;;;;5016559;28;20408;-75
2021/11/17 02:55:52;;;;;;;5.65;1.30;;;;;;;;;;5015910;28;20042;-76
2021/11/17 02:58:19;;;;;;;6.07;1.50;;;;;;;;;;4998999;28;20042;-75
2021/11/17 03:01:05;;;;;;;5.25;1.02;;;;;;;;;;5016640;28;20053;-75
2021/11/17 03:03:35;;;;;;;3.20;1.30;;;;;;;;;;5016388;28;20048;-75
2021/11/17 03:06:07;;;;;;;4.45;1.65;;;;;;;;;;5016647;28;20034;-75
2021/11/17 03:08:35;;;;;;;4.97;1.10;;;;;;;;;;5016302;28;20038;-75
2021/11/17 03:11:05;;;;;;;7.18;1.40;;;;;;;;;;5015732;28;20565;-74
2021/11/17 03:13:35;;;;;;;7.22;1.05;;;;;;;;;;5015906;28;20048;-75
2021/11/17 03:16:03;;;;;;;3.42;1.25;;;;;;;;;;4984859;28;20533;-74
2021/11/17 03:18:41;;;;;;;5.40;1.30;;;;;;;;;;4976928;28;20038;-74
2021/11/17 03:21:27;;;;;;;6.07;1.38;;;;;;;;;;4977174;28;20618;-75
2021/11/17 03:24:04;;;;;;;5.35;1.05;;;;;;;;;;4977029;28;20042;-76
2021/11/17 03:26:52;;;;;;;4.25;1.10;;;;;;;;;;4976586;28;20069;-76
2021/11/17 03:29:45;;;;;;;6.07;1.20;;;;;;;;;;4976981;28;20054;-74
2021/11/17 03:32:18;;;;;;;4.72;1.25;;;;;;;;;;4977206;28;20126;-75
2021/11/17 03:35:04;;;;;;;3.72;1.15;;;;;;;;;;4976459;28;20050;-75
2021/11/17 03:37:57;;;;;;;4.50;1.30;;;;;;;;;;4976603;28;20135;-75
2021/11/17 03:40:33;;;;;;;3.70;1.20;;;;;;;;;;4975182;28;20421;-75
2021/11/17 03:43:20;;;;;;;4.13;1.60;;;;;;;;;;4976532;28;20069;-75
2021/11/17 03:45:47;;;;;;;7.22;1.63;;;;;;;;;;4959553;28;20110;-75
2021/11/17 03:48:18;;;;;;;5.97;1.25;;;;;;;;;;4976485;28;20038;-75
2021/11/17 03:50:56;;;;;;;6.85;1.33;;;;;;;;;;4976643;28;20039;-75
2021/11/17 03:53:44;;;;;;;5.80;1.40;;;;;;;;;;4976378;28;20074;-75
2021/11/17 03:56:24;;;;;;;1.77;1.20;;;;;;;;;;4975943;28;20078;-74
2021/11/17 03:58:57;;;;;;;4.93;1.48;;;;;;;;;;4958939;28;20567;-74
2021/11/17 04:01:43;;;;;;;6.00;1.17;;;;;;;;;;4975745;28;20057;-75
2021/11/17 04:04:20;;;;;;;4.75;1.13;;;;;;;;;;4974963;28;20562;-75
2021/11/17 04:06:54;;;;;;;4.63;1.23;;;;;;;;;;4974718;28;20098;-74
2021/11/17 04:09:41;;;;;;;4.20;1.65;;;;;;;;;;4974278;28;20043;-75
2021/11/17 04:12:14;;;;;;;4.60;1.20;;;;;;;;;;4976467;28;20121;-75
2021/11/17 04:14:51;;;;;;;3.85;1.52;;;;;;;;;;4975791;28;20053;-75
2021/11/17 04:17:18;;;;;;;9.93;1.83;;;;;;;;;;4975952;28;20126;-74
2021/11/17 04:19:58;;;;;;;9.10;1.85;;;;;;;;;;4975878;28;20050;-74
2021/11/17 04:22:32;;;;;;;5.00;1.40;;;;;;;;;;4975941;28;20061;-76
2021/11/17 04:25:29;;;;;;;2.80;1.33;;;;;;;;;;4975687;28;20043;-75
2021/11/17 04:27:56;;;;;;;7.45;1.40;;;;;;;;;;4935187;28;20134;-74
2021/11/17 04:30:38;;;;;;;7.35;2.05;;;;;;;;;;4919263;29;20547;-74
2021/11/17 04:33:15;;;;;;;6.10;1.48;;;;;;;;;;4935387;29;20063;-76
2021/11/17 04:35:53;;;;;;;5.65;1.48;;;;;;;;;;4934758;29;20122;-75
2021/11/17 04:38:39;;;;;;;5.40;1.30;;;;;;;;;;4934516;29;20060;-75
2021/11/17 04:41:13;;;;;;;4.57;1.40;;;;;;;;;;4935086;29;20587;-75
2021/11/17 04:43:49;;;;;;;6.10;1.67;;;;;;;;;;4934666;29;20047;-76
2021/11/17 04:46:36;;;;;;;14.00;1.50;;;;;;;;;;4935210;29;20075;-74
2021/11/17 04:49:22;;;;;;;5.25;1.90;;;;;;;;;;4934969;29;20644;-75
2021/11/17 04:52:03;;;;;;;6.30;2.03;;;;;;;;;;4934700;29;20064;-77
2021/11/17 04:54:43;;;;;;;11.07;1.80;;;;;;;;;;4934586;29;20052;-77
2021/11/17 04:57:23;;;;;;;10.43;2.30;;;;;;;;;;4934877;29;20070;-76
2021/11/17 04:59:59;;;;;;;12.20;2.53;;;;;;;;;;4934765;29;20047;-76
2021/11/17 05:02:42;;;;;;;7.63;1.83;;;;;;;;;;4902760;29;20095;-76
2021/11/17 05:05:17;;;;;;;9.23;1.80;;;;;;;;;;4947632;28;20047;-76
2021/11/17 05:08:03;;;;;;;12.13;2.03;;;;;;;;;;4974552;28;20226;-76
2021/11/17 05:10:46;;;;;;;9.18;1.80;;;;;;;;;;4975059;28;20042;-77
2021/11/17 05:13:20;;;;;;;8.43;2.28;;;;;;;;;;4972911;28;20046;-76
2021/11/17 05:15:52;;;;;;;17.35;3.10;;;;;;;;;;4957774;28;20061;-76
2021/11/17 05:18:28;;;;;;;14.77;2.67;;;;;;;;;;4957628;28;20049;-76
2021/11/17 05:21:14;;;;;;;11.40;2.42;;;;;;;;;;4973105;28;20129;-76
2021/11/17 05:24:03;;;;;;;12.05;2.50;;;;;;;;;;4974669;28;20043;-74
2021/11/17 05:26:31;;;;;;;15.60;3.42;;;;;;;;;;4974740;28;20038;-75
2021/11/17 05:29:05;;;;;;;17.45;3.35;;;;;;;;;;4974657;28;20114;-74
2021/11/17 05:31:39;;;;;;;18.92;3.92;;;;;;;;;;4975048;28;20043;-75
2021/11/17 05:34:06;;;;;;;25.20;4.75;;;;;;;;;;4974486;28;20089;-75
2021/11/17 05:37:01;;;;;;;23.83;4.78;;;;;;;;;;4972902;28;20053;-75
2021/11/17 05:39:48;;;;;;;16.63;3.58;;;;;;;;;;4972381;28;20058;-74
2021/11/17 05:42:22;;;;;;;11.32;3.78;;;;;;;;;;4974401;28;20043;-74
2021/11/17 05:44:52;;;;;;;11.82;3.35;;;;;;;;;;4974571;28;20121;-76
2021/11/17 05:47:23;;;;;;;18.33;3.05;;;;;;;;;;4974390;28;20043;-76
2021/11/17 05:49:56;;;;;;;19.05;3.83;;;;;;;;;;4974137;28;20043;-76
2021/11/17 05:52:25;;;;;;;7.93;3.28;;;;;;;;;;4974351;28;20498;-78
2021/11/17 05:55:13;;;;;;;8.00;2.35;;;;;;;;;;4974331;28;20046;-77
2021/11/17 05:57:50;;;;;;;12.45;2.53;;;;;;;;;;4973976;28;20047;-77
2021/11/17 06:00:43;;;;;;;2.65;1.70;;;;;;;;;;4957249;28;20486;-76
2021/11/17 06:03:14;;;;;;;7.90;1.88;;;;;;;;;;4973006;28;20047;-76
2021/11/17 06:05:42;;;;;;;8.30;1.75;;;;;;;;;;4973991;28;20035;-76
2021/11/17 06:08:11;;;;;;;3.63;2.03;;;;;;;;;;4973970;28;20035;-76
2021/11/17 06:10:43;;;;;;;8.27;1.70;;;;;;;;;;4971994;28;20090;-75
2021/11/17 06:13:11;;;;;;;;;;;;;;;;;;4970659;28;20073;-76
2021/11/17 06:15:40;;;;;;;6.57;1.30;;;;;;;;;;4986700;28;19928;-75
2021/11/17 06:18:10;;;;;;;1.80;1.42;;;;;;;;;;5011831;28;20045;-76
2021/11/17 06:20:38;;;;;;;8.48;1.70;;;;;;;;;;5011551;28;20053;-75
2021/11/17 06:23:11;;;;;;;4.72;1.23;;;;;;;;;;5012240;28;20056;-77
2021/11/17 06:25:40;;;;;;;2.45;1.20;;;;;;;;;;5016287;28;20482;-77
2021/11/17 06:28:09;;;;;;;5.07;1.25;;;;;;;;;;5015294;28;20034;-75
2021/11/17 06:30:38;;;;;;;3.55;1.20;;;;;;;;;;5014715;28;20049;-75
2021/11/17 06:33:07;;;;;;;3.53;0.80;;;;;;;;;;5016061;28;20129;-77
2021/11/17 06:35:36;;;;;;;13.07;1.85;;;;;;;;;;5016238;28;20044;-77
2021/11/17 06:38:05;;;;;;;2.45;1.33;;;;;;;;;;5016361;28;20585;-78
2021/11/17 06:40:33;;;;;;;8.98;2.05;;;;;;;;;;5016739;28;20519;-75
2021/11/17 06:43:02;;;;;;;3.00;1.48;;;;;;;;;;5016677;28;20350;-75
2021/11/17 06:45:35;;;;;;;7.88;2.38;;;;;;;;;;5016856;28;20044;-79
2021/11/17 06:48:03;;;;;;;3.50;1.60;;;;;;;;;;4992738;28;20133;-73
2021/11/17 06:50:30;;;;;;;23.17;1.83;;;;;;;;;;4990467;28;20286;-74
2021/11/17 06:52:59;;;;;;;7.15;0.90;;;;;;;;;;4991605;28;20046;-76
2021/11/17 06:55:26;;;;;;;1.30;0.60;;;;;;;;;;4974856;28;20054;-75
2021/11/17 06:57:54;;;;;;;1.30;1.08;;;;;;;;;;4981621;28;20053;-73
2021/11/17 07:00:27;;;;;;;1.20;1.10;;;;;;;;;;5008625;28;20054;-73
2021/11/17 07:02:58;;;;;;;8.43;2.75;;;;;;;;;;4995586;28;20323;-74
2021/11/17 07:05:26;;;;;;;4.65;1.27;;;;;;;;;;4996565;28;20046;-77
2021/11/17 07:07:55;;;;;;;0.50;0.50;;;;;;;;;;4995121;28;20050;-75
2021/11/17 07:10:24;;;;;;;0.50;0.50;;;;;;;;;;4996589;28;20035;-75
2021/11/17 07:12:54;;;;;;;0.65;0.65;;;;;;;;;;4996479;28;20395;-73
2021/11/17 07:15:23;;;;;;;0.45;0.40;;;;;;;;;;5000950;28;20561;-75
2021/11/17 07:17:51;;;;;;;0.52;0.40;;;;;;;;;;4997520;28;20049;-75
2021/11/17 07:20:20;;;;;;;0.10;0.05;;;;;;;;;;5016043;28;20052;-77
2021/11/17 07:22:48;;;;;;;3.72;0.50;;;;;;;;;;5015416;28;20129;-76
2021/11/17 07:25:18;;;;;;;0.28;0.28;;;;;;;;;;5015447;28;20117;-77
2021/11/17 07:27:46;;;;;;;2.63;0.55;;;;;;;;;;4998444;28;20069;-75
2021/11/17 07:30:15;;;;;;;0.55;0.40;;;;;;;;;;5016123;28;20397;-76
2021/11/17 07:32:43;;;;;;;0.13;0.13;;;;;;;;;;5014523;28;20044;-78
2021/11/17 07:35:14;;;;;;;0.10;0.10;;;;;;;;;;5014716;28;20077;-76
2021/11/17 07:37:41;;;;;;;2.67;0.47;;;;;;;;;;4999783;28;20470;-75
2021/11/17 07:40:10;;;;;;;0.60;0.60;;;;;;;;;;4998118;28;20050;-75
2021/11/17 07:42:39;;;;;;;0.15;0.15;;;;;;;;;;5015484;28;20038;-75
2021/11/17 07:45:07;;;;;;;1.67;0.95;;;;;;;;;;5015249;28;20048;-76
2021/11/17 07:47:35;;;;;;;0.43;0.43;;;;;;;;;;5015032;28;20380;-75
2021/11/17 07:50:05;;;;;;;11.95;1.15;;;;;;;;;;5015320;28;20486;-76
2021/11/17 07:52:33;;;;;;;6.93;0.63;;;;;;;;;;4997770;28;20519;-77
2021/11/17 07:55:03;;;;;;;2.38;0.68;;;;;;;;;;4997882;28;20046;-76
2021/11/17 07:57:30;;;;;;;0.43;0.43;;;;;;;;;;4997815;28;20117;-75
2021/11/17 07:59:58;;;;;;;2.45;1.83;;;;;;;;;;5015198;28;20042;-75
2021/11/17 08:02:26;;;;;;;0.65;0.65;;;;;;;;;;4981855;28;20041;-76
2021/11/17 08:04:54;;;;;;;0.30;0.30;;;;;;;;;;4997925;28;20092;-76
2021/11/17 08:07:22;;;;;;;1.00;0.45;;;;;;;;;;4997420;28;20038;-76
2021/11/17 08:09:50;;;;;;;4.05;0.40;;;;;;;;;;4997380;28;20157;-76
2021/11/17 08:12:19;;;;;;;2.10;0.50;;;;;;;;;;5015307;28;20486;-76
2021/11/17 08:14:46;;;;;;;0.30;0.30;;;;;;;;;;5024026;23;20044;-75
2021/11/17 08:17:15;;;;;;;0.45;0.40;;;;;;;;;;5033687;28;20038;-76
2021/11/17 08:19:43;;;;;;;1.40;0.90;;;;;;;;;;5034189;28;20047;-77
2021/11/17 08:22:10;;;;;;;3.08;1.10;;;;;;;;;;5034372;28;20048;-75
2021/11/17 08:24:39;;;;;;;1.20;1.10;;;;;;;;;;5032955;28;20045;-74
2021/11/17 08:27:07;;;;;;;1.00;0.90;;;;;;;;;;5033987;28;20121;-76
2021/11/17 08:29:36;;;;;;;1.27;1.17;;;;;;;;;;5034088;28;20120;-75
2021/11/17 08:32:03;;;;;;;1.08;0.55;;;;;;;;;;5032986;28;20048;-75
2021/11/17 08:34:31;;;;;;;0.20;0.20;;;;;;;;;;5016423;28;20046;-74
2021/11/17 08:36:59;;;;;;;0.13;0.13;;;;;;;;;;5034280;28;20041;-76
2021/11/17 08:39:27;;;;;;;0.28;0.10;;;;;;;;;;5034507;28;20054;-75
2021/11/17 08:41:55;;;;;;;0.25;0.25;;;;;;;;;;5034102;28;20148;-75
2021/11/17 08:44:24;;;;;;;1.17;0.65;;;;;;;;;;5033606;28;20047;-74
2021/11/17 08:46:52;;;;;;;0.20;0.20;;;;;;;;;;5034150;28;20048;-75
2021/11/17 08:49:21;;;;;;;0.38;0.38;;;;;;;;;;5017071;28;20042;-74
2021/11/17 08:51:48;;;;;;;0.95;0.55;;;;;;;;;;5033949;28;20047;-75
2021/11/17 08:54:18;;;;;;;0.13;0.13;;;;;;;;;;5034243;28;20480;-74
2021/11/17 08:56:46;;;;;;;1.17;0.70;;;;;;;;;;5016120;28;20136;-75
2021/11/17 08:59:16;;;;;;;0.38;0.38;;;;;;;;;;5030589;28;20048;-76
2021/11/17 09:01:44;;;;;;;2.90;1.15;;;;;;;;;;5030148;28;20049;-76
2021/11/17 09:04:12;;;;;;;0.20;0.20;;;;;;;;;;5016079;28;20056;-75
2021/11/17 09:06:40;;;;;;;2.97;0.57;;;;;;;;;;5033725;28;20756;-76
2021/11/17 09:09:08;;;;;;;0.20;0.20;;;;;;;;;;5033661;28;20469;-76
2021/11/17 09:11:38;;;;;;;5.30;0.68;;;;;;;;;;5033489;28;20044;-75
2021/11/17 09:14:05;;;;;;;1.08;0.90;;;;;;;;;;5015496;28;20412;-77
2021/11/17 09:16:33;;;;;;;0.75;0.70;;;;;;;;;;5033689;28;20527;-76
2021/11/17 09:19:03;;;;;;;0.22;0.22;;;;;;;;;;5033804;28;20049;-75
2021/11/17 09:21:33;;;;;;;0.63;0.50;;;;;;;;;;5033614;28;20465;-74
2021/11/17 09:24:05;;;;;;;1.60;0.75;;;;;;;;;;5033249;28;20045;-76
2021/11/17 09:26:34;;;;;;;0.20;0.20;;;;;;;;;;5016221;28;20088;-75
2021/11/17 09:29:04;;;;;;;1.08;0.73;;;;;;;;;;5032743;28;20033;-77
2021/11/17 09:31:32;;;;;;;1.00;0.73;;;;;;;;;;5015565;28;20038;-76
2021/11/17 09:34:02;;;;;;;0.30;0.30;;;;;;;;;;5033344;28;20049;-76
2021/11/17 09:36:31;;;;;;;0.73;0.73;;;;;;;;;;5015553;28;20055;-77
2021/11/17 09:39:00;;;;;;;0.30;0.30;;;;;;;;;;5015940;28;20128;-76
2021/11/17 09:41:29;;;;;;;0.32;0.32;;;;;;;;;;5033140;28;20377;-76
2021/11/17 09:44:01;;;;;;;0.50;0.50;;;;;;;;;;5032864;28;20124;-77
2021/11/17 09:46:34;;;;;;;0.28;0.28;;;;;;;;;;5032916;28;20049;-76
2021/11/17 09:49:05;;;;;;;1.08;0.45;;;;;;;;;;5033213;28;20037;-76
2021/11/17 09:51:35;;;;;;;0.57;0.17;;;;;;;;;;5032653;28;20043;-74
2021/11/17 09:54:10;;;;;;;0.47;0.47;;;;;;;;;;5015609;28;20038;-75
2021/11/17 09:56:39;;;;;;;0.75;0.75;;;;;;;;;;5032482;28;20048;-75
2021/11/17 09:59:08;;;;;;;0.22;0.22;;;;;;;;;;5032287;28;20132;-75
2021/11/17 10:01:56;;;;;;;0.60;0.60;;;;;;;;;;5032947;28;20041;-75
2021/11/17 10:04:30;;;;;;;0.57;0.52;;;;;;;;;;5032774;28;20052;-75
2021/11/17 10:10:11;;;;;;;1.80;0.93;;;;;;;;;;5032896;28;20123;-76
2021/11/17 10:15:25;;;;;;;0.85;0.80;;;;;;;;;;5032889;28;20100;-73
2021/11/17 10:17:53;;;;;;;1.45;0.52;;;;;;;;;;5032749;28;20041;-75
2021/11/17 10:20:21;;;;;;;0.50;0.50;;;;;;;;;;5015317;28;20108;-74
2021/11/17 10:22:51;;;;;;;7.07;1.00;;;;;;;;;;5015364;28;20073;-74
2021/11/17 10:25:22;;;;;;;0.90;0.85;;;;;;;;;;5032660;28;20133;-75
2021/11/17 10:27:57;;;;;;;0.50;0.50;;;;;;;;;;5015496;28;20045;-74
2021/11/17 10:30:30;;;;;;;0.95;0.95;;;;;;;;;;5032399;28;20536;-76
2021/11/17 10:33:04;;;;;;;1.10;0.80;;;;;;;;;;5015086;28;20124;-75
2021/11/17 10:35:34;;;;;;;4.70;0.75;;;;;;;;;;5032517;28;20041;-74
2021/11/17 10:38:07;;;;;;;0.70;0.70;;;;;;;;;;5032842;28;20049;-76
2021/11/17 10:40:45;;;;;;;0.95;0.90;;;;;;;;;;5032549;28;20408;-75
2021/11/17 10:43:18;;;;;;;0.43;0.43;;;;;;;;;;5032441;28;20540;-76
2021/11/17 10:46:04;;;;;;;1.65;0.95;;;;;;;;;;5032571;28;20095;-75
2021/11/17 10:48:39;;;;;;;0.65;0.57;;;;;;;;;;5015173;28;20760;-75
2021/11/17 10:51:14;;;;;;;0.50;0.50;;;;;;;;;;5032666;28;20069;-76
2021/11/17 10:53:42;;;;;;;0.63;0.63;;;;;;;;;;5032548;28;20072;-74
2021/11/17 10:56:13;;;;;;;0.68;0.68;;;;;;;;;;5014029;28;20049;-74
2021/11/17 10:58:42;;;;;;;0.47;0.40;;;;;;;;;;5014419;28;20476;-74
2021/11/17 11:01:13;;;;;;;0.40;0.40;;;;;;;;;;4998672;28;20059;-74
2021/11/17 11:03:53;;;;;;;0.70;0.50;;;;;;;;;;5032464;28;20045;-73
2021/11/17 11:06:23;;;;;;;1.20;0.57;;;;;;;;;;5032302;28;20124;-74
2021/11/17 11:08:51;;;;;;;3.97;1.20;;;;;;;;;;5031999;28;20049;-74
2021/11/17 11:11:19;;;;;;;6.43;1.02;;;;;;;;;;5034321;28;20037;-74
2021/11/17 11:13:49;;;;;;;2.05;0.90;;;;;;;;;;5018507;28;20427;-76
2021/11/17 11:16:21;;;;;;;3.50;1.42;;;;;;;;;;5018092;28;20077;-75
2021/11/17 11:18:54;;;;;;;3.00;1.00;;;;;;;;;;5035792;28;20048;-74
2021/11/17 11:21:39;;;;;;;2.35;1.00;;;;;;;;;;5035814;28;20045;-73
2021/11/17 11:24:28;;;;;;;3.47;0.90;;;;;;;;;;5035141;28;20048;-73
2021/11/17 11:26:58;;;;;;;4.28;0.75;;;;;;;;;;5035889;28;20143;-75
2021/11/17 11:29:29;;;;;;;3.75;0.82;;;;;;;;;;5017895;28;20535;-75
2021/11/17 11:31:59;;;;;;;4.60;0.98;;;;;;;;;;5035680;28;20041;-75
2021/11/17 11:34:47;;;;;;;6.47;1.60;;;;;;;;;;5035275;28;20048;-73
2021/11/17 11:37:23;;;;;;;5.03;1.67;;;;;;;;;;5035684;28;20045;-75
2021/11/17 11:40:07;;;;;;;6.90;1.75;;;;;;;;;;5017882;28;20088;-75
2021/11/17 11:42:53;;;;;;;4.50;1.77;;;;;;;;;;5035494;28;20119;-73
2021/11/17 11:45:28;;;;;;;5.82;1.90;;;;;;;;;;5034909;28;20095;-73
2021/11/17 11:48:04;;;;;;;6.22;1.90;;;;;;;;;;5017794;28;20481;-72
2021/11/17 11:50:35;;;;;;;8.55;2.15;;;;;;;;;;5035275;28;20125;-74
2021/11/17 11:53:06;;;;;;;3.70;1.80;;;;;;;;;;5035098;28;20139;-73
2021/11/17 11:55:53;;;;;;;4.93;1.83;;;;;;;;;;5035055;28;20393;-73
2021/11/17 11:58:26;;;;;;;5.88;2.00;;;;;;;;;;5035396;28;20052;-74
2021/11/17 12:00:56;;;;;;;5.95;1.77;;;;;;;;;;5034784;28;20045;-73
2021/11/17 12:03:24;;;;;;;4.50;1.70;;;;;;;;;;5034901;28;20046;-72
2021/11/17 12:06:13;;;;;;;4.00;1.88;;;;;;;;;;5034983;28;20048;-73
2021/11/17 12:08:44;;;;;;;3.03;2.10;;;;;;;;;;5034185;28;20056;-73
2021/11/17 12:11:12;;;;;;;3.75;1.80;;;;;;;;;;5017018;28;20076;-73
2021/11/17 12:13:44;;;;;;;4.50;1.60;;;;;;;;;;5016987;28;20048;-75
2021/11/17 12:16:17;;;;;;;4.97;1.80;;;;;;;;;;5034742;28;20060;-74
2021/11/17 12:18:53;;;;;;;4.10;1.70;;;;;;;;;;5034608;28;20037;-74
2021/11/17 12:21:27;;;;;;;5.30;1.88;;;;;;;;;;5034451;28;20492;-74
2021/11/17 12:24:10;;;;;;;11.85;1.80;;;;;;;;;;5034041;28;20428;-74
2021/11/17 12:26:42;;;;;;;5.68;1.45;;;;;;;;;;5034292;28;20043;-74
2021/11/17 12:29:18;;;;;;;5.97;2.30;;;;;;;;;;5016494;28;20132;-75
2021/11/17 12:31:57;;;;;;;5.55;1.90;;;;;;;;;;5034621;28;20101;-74
2021/11/17 12:34:30;;;;;;;4.70;1.90;;;;;;;;;;5034293;28;20534;-74
2021/11/17 12:36:58;;;;;;;;;;;;;;;;;;5034411;28;20129;-74
2021/11/17 12:39:29;;;;;;;7.95;1.80;;;;;;;;;;5034321;28;19921;-73
2021/11/17 12:41:58;;;;;;;6.47;1.90;;;;;;;;;;5034210;28;20041;-74
2021/11/17 12:44:43;;;;;;;5.72;1.63;;;;;;;;;;5016390;28;20428;-74
2021/11/17 12:47:15;;;;;;;3.35;1.48;;;;;;;;;;5033953;28;20103;-73
2021/11/17 12:49:58;;;;;;;7.22;1.60;;;;;;;;;;5033932;28;20043;-72
2021/11/17 12:52:43;;;;;;;5.35;1.77;;;;;;;;;;5033769;28;20069;-74
2021/11/17 12:55:11;;;;;;;6.80;1.58;;;;;;;;;;5034170;28;20474;-74
2021/11/17 12:57:47;;;;;;;9.35;2.15;;;;;;;;;;5016118;28;20405;-74
2021/11/17 13:00:15;;;;;;;7.70;2.15;;;;;;;;;;5034016;28;20076;-71
2021/11/17 13:02:48;;;;;;;7.38;1.65;;;;;;;;;;5034102;28;20095;-73
2021/11/17 13:05:22;;;;;;;8.10;2.42;;;;;;;;;;5015428;28;20045;-74
2021/11/17 13:07:54;;;;;;;8.93;1.92;;;;;;;;;;5033488;28;20095;-73
2021/11/17 13:10:26;;;;;;;4.82;1.50;;;;;;;;;;5033802;28;20560;-73
2021/11/17 13:13:10;;;;;;;8.13;2.00;;;;;;;;;;5033805;28;20119;-72
2021/11/17 13:15:49;;;;;;;6.15;1.85;;;;;;;;;;5015626;28;20088;-72
2021/11/17 13:18:26;;;;;;;7.63;2.40;;;;;;;;;;5031527;28;20140;-72
2021/11/17 13:21:05;;;;;;;8.68;2.05;;;;;;;;;;4996966;28;20077;-73
2021/11/17 13:23:37;;;;;;;8.30;2.17;;;;;;;;;;5033403;28;20046;-73
2021/11/17 13:26:12;;;;;;;9.43;1.98;;;;;;;;;;5033079;28;20104;-74
2021/11/17 13:28:41;;;;;;;11.02;2.10;;;;;;;;;;5032434;28;20048;-73
2021/11/17 13:31:27;;;;;;;6.50;1.60;;;;;;;;;;5032735;28;20041;-72
2021/11/17 13:34:14;;;;;;;7.20;1.63;;;;;;;;;;5014900;28;20069;-72
2021/11/17 13:36:44;;;;;;;9.15;2.03;;;;;;;;;;5033119;28;20092;-73
2021/11/17 13:39:13;;;;;;;8.68;1.98;;;;;;;;;;5033727;28;20055;-72
2021/11/17 13:41:43;;;;;;;7.97;1.85;;;;;;;;;;5033547;28;20077;-74
2021/11/17 13:44:12;;;;;;;9.02;2.63;;;;;;;;;;5015500;28;20064;-72
2021/11/17 13:46:50;;;;;;;7.18;1.42;;;;;;;;;;5033655;28;20037;-73
2021/11/17 13:49:18;;;;;;;8.10;1.55;;;;;;;;;;5033072;28;20079;-73
2021/11/17 13:51:46;;;;;;;6.85;2.28;;;;;;;;;;5033523;28;20076;-74
2021/11/17 13:54:14;;;;;;;12.02;1.77;;;;;;;;;;5050790;28;20477;-72
2021/11/17 13:56:43;;;;;;;5.15;1.10;;;;;;;;;;5052837;28;20527;-75
2021/11/17 13:59:10;;;;;;;8.93;1.40;;;;;;;;;;5035343;28;20055;-73
2021/11/17 14:01:38;;;;;;;6.75;1.33;;;;;;;;;;5035343;28;20048;-73
2021/11/17 14:04:06;;;;;;;10.73;1.45;;;;;;;;;;5052888;28;20041;-73
2021/11/17 14:06:34;;;;;;;4.90;1.25;;;;;;;;;;5053077;28;20037;-72
2021/11/17 14:09:03;;;;;;;7.15;1.17;;;;;;;;;;5053209;28;20045;-73
2021/11/17 14:11:35;;;;;;;9.25;1.33;;;;;;;;;;5036256;28;20687;-74
2021/11/17 14:14:03;;;;;;;8.07;1.35;;;;;;;;;;5052814;28;20045;-73
2021/11/17 14:16:30;;;;;;;7.25;1.25;;;;;;;;;;5052714;28;20045;-73
2021/11/17 14:18:58;;;;;;;7.75;1.63;;;;;;;;;;5052670;28;20061;-73
2021/11/17 14:21:26;;;;;;;8.63;1.50;;;;;;;;;;5052912;28;20089;-74
2021/11/17 14:23:54;;;;;;;8.55;1.75;;;;;;;;;;5035222;28;20049;-73
2021/11/17 14:26:22;;;;;;;5.57;1.50;;;;;;;;;;5052622;28;20215;-72
2021/11/17 14:28:55;;;;;;;4.38;1.30;;;;;;;;;;5052959;28;20052;-72
2021/11/17 14:31:24;;;;;;;;;;;;;;;;;;5035298;28;20045;-72
2021/11/17 14:33:57;;;;;;;5.22;1.30;;;;;;;;;;5052666;28;19920;-73
2021/11/17 14:36:33;;;;;;;7.80;1.70;;;;;;;;;;5052118;28;20167;-73
2021/11/17 14:39:08;;;;;;;9.02;1.88;;;;;;;;;;5017402;28;20042;-72
2021/11/17 14:41:37;;;;;;;8.90;2.03;;;;;;;;;;5032317;28;20046;-75
2021/11/17 14:44:05;;;;;;;4.88;1.80;;;;;;;;;;5032801;28;20049;-71
2021/11/17 14:46:33;;;;;;;3.95;1.33;;;;;;;;;;5035637;28;20136;-71
2021/11/17 14:49:01;;;;;;;7.05;2.15;;;;;;;;;;5037009;28;20041;-71
2021/11/17 14:51:29;;;;;;;5.72;1.60;;;;;;;;;;5036332;28;20042;-70
2021/11/17 14:53:57;;;;;;;13.43;2.75;;;;;;;;;;5036223;28;20049;-71
2021/11/17 14:56:25;;;;;;;5.70;1.60;;;;;;;;;;5036282;28;20041;-72
2021/11/17 14:58:53;;;;;;;9.07;1.80;;;;;;;;;;5036228;28;20042;-72
2021/11/17 15:01:22;;;;;;;8.13;2.10;;;;;;;;;;5035844;28;20516;-71
2021/11/17 15:03:51;;;;;;;9.55;1.65;;;;;;;;;;5035778;28;20048;-71
2021/11/17 15:06:20;;;;;;;11.43;2.13;;;;;;;;;;5035852;28;20048;-70
2021/11/17 15:08:48;;;;;;;10.48;2.83;;;;;;;;;;5032880;28;20041;-73
2021/11/17 15:11:16;;;;;;;5.97;1.73;;;;;;;;;;5028192;28;20038;-74
2021/11/17 15:13:44;;;;;;;5.88;1.88;;;;;;;;;;5003439;28;20587;-72
2021/11/17 15:16:12;;;;;;;9.18;2.17;;;;;;;;;;5035684;28;20054;-72
2021/11/17 15:18:45;;;;;;;8.98;1.75;;;;;;;;;;5035855;28;20045;-73
2021/11/17 15:21:16;;;;;;;4.53;1.40;;;;;;;;;;5015538;28;21586;-71
2021/11/17 15:23:45;;;;;;;9.07;2.17;;;;;;;;;;5031465;28;20041;-72
2021/11/17 15:26:14;;;;;;;8.20;1.95;;;;;;;;;;5047184;28;20045;-72
2021/11/17 15:28:47;;;;;;;10.75;2.15;;;;;;;;;;5034818;28;20386;-72
2021/11/17 15:31:16;;;;;;;10.10;3.08;;;;;;;;;;5036337;28;20065;-72
2021/11/17 15:33:45;;;;;;;15.60;3.22;;;;;;;;;;5034936;28;20457;-71
2021/11/17 15:36:13;;;;;;;10.90;2.70;;;;;;;;;;5017021;28;20041;-71
2021/11/17 15:38:42;;;;;;;9.95;3.13;;;;;;;;;;5035576;28;20053;-72
2021/11/17 15:41:13;;;;;;;9.18;2.80;;;;;;;;;;5017969;28;20048;-72
2021/11/17 15:43:42;;;;;;;17.90;3.10;;;;;;;;;;5035535;28;20073;-72
2021/11/17 15:46:09;;;;;;;8.35;3.10;;;;;;;;;;5035007;28;20037;-73
2021/11/17 15:48:37;;;;;;;10.38;3.80;;;;;;;;;;5027897;28;20034;-72
2021/11/17 15:51:08;;;;;;;7.05;3.20;;;;;;;;;;4997583;28;20038;-71
2021/11/17 15:53:35;;;;;;;11.15;3.58;;;;;;;;;;5014424;28;20037;-72
2021/11/17 15:56:03;;;;;;;9.95;3.85;;;;;;;;;;5014886;28;20077;-73
2021/11/17 15:58:31;;;;;;;12.80;3.90;;;;;;;;;;5013673;28;20050;-72
2021/11/17 16:00:59;;;;;;;7.43;3.90;;;;;;;;;;5014600;28;20057;-72
2021/11/17 16:03:29;;;;;;;10.60;3.70;;;;;;;;;;5015023;28;20041;-72
2021/11/17 16:05:58;;;;;;;7.68;3.30;;;;;;;;;;5015198;28;20104;-72
2021/11/17 16:08:26;;;;;;;8.93;3.30;;;;;;;;;;5015468;28;20429;-72
2021/11/17 16:10:53;;;;;;;10.98;3.70;;;;;;;;;;5018105;28;20034;-71
2021/11/17 16:13:22;;;;;;;12.68;3.80;;;;;;;;;;5032918;28;20124;-72
2021/11/17 16:15:50;;;;;;;14.52;4.10;;;;;;;;;;5034761;28;20056;-73
2021/11/17 16:18:18;;;;;;;11.40;3.65;;;;;;;;;;5034997;28;20099;-72
2021/11/17 16:20:52;;;;;;;15.30;3.10;;;;;;;;;;5034798;28;20072;-72
2021/11/17 16:26:05;;;;;;;9.75;2.70;;;;;;;;;;5034852;28;20462;-72
2021/11/17 16:28:37;;;;;;;5.20;2.70;;;;;;;;;;5034797;28;20045;-72
2021/11/17 16:31:06;;;;;;;11.50;3.67;;;;;;;;;;5035006;28;20052;-72
2021/11/17 16:33:34;;;;;;;8.48;2.72;;;;;;;;;;5034407;28;20048;-74
2021/11/17 16:36:03;;;;;;;8.65;3.00;;;;;;;;;;5034617;28;20051;-73
2021/11/17 16:38:30;;;;;;;4.85;2.30;;;;;;;;;;5034727;28;20045;-74
2021/11/17 16:41:01;;;;;;;9.20;2.50;;;;;;;;;;5034775;28;20041;-74
2021/11/17 16:43:32;;;;;;;16.42;2.97;;;;;;;;;;5030209;28;20370;-73
2021/11/17 16:46:00;;;;;;;8.80;2.92;;;;;;;;;;5033237;28;20041;-73
2021/11/17 16:48:29;;;;;;;9.38;2.55;;;;;;;;;;5017605;28;20064;-73
2021/11/17 16:50:58;;;;;;;6.70;2.90;;;;;;;;;;5034198;28;20552;-74
2021/11/17 16:53:25;;;;;;;13.10;2.70;;;;;;;;;;5033824;28;20408;-73
2021/11/17 16:55:57;;;;;;;10.52;2.85;;;;;;;;;;5023208;28;20049;-73
2021/11/17 16:58:25;;;;;;;9.02;2.75;;;;;;;;;;5015949;28;20048;-73
2021/11/17 17:00:56;;;;;;;8.35;3.17;;;;;;;;;;5034118;28;20172;-74
2021/11/17 17:03:28;;;;;;;12.55;3.13;;;;;;;;;;5034173;28;20050;-73
2021/11/17 17:05:57;;;;;;;8.82;3.78;;;;;;;;;;5016806;28;20040;-72
2021/11/17 17:08:28;;;;;;;14.63;3.25;;;;;;;;;;5034308;28;20456;-73
2021/11/17 17:10:56;;;;;;;12.05;3.15;;;;;;;;;;5033754;28;20045;-72
2021/11/17 17:13:23;;;;;;;6.90;2.50;;;;;;;;;;5033773;28;20415;-73
2021/11/17 17:15:51;;;;;;;14.38;2.78;;;;;;;;;;5016334;28;20053;-74
2021/11/17 17:18:23;;;;;;;6.95;2.72;;;;;;;;;;5033556;28;20540;-73
2021/11/17 17:20:58;;;;;;;10.05;3.03;;;;;;;;;;5033512;28;20438;-74
2021/11/17 17:23:26;;;;;;;11.27;3.35;;;;;;;;;;5032606;28;20046;-73
2021/11/17 17:25:54;;;;;;;8.50;3.53;;;;;;;;;;5033871;28;20068;-73
2021/11/17 17:28:31;;;;;;;13.30;4.20;;;;;;;;;;5024577;28;20061;-74
2021/11/17 17:31:00;;;;;;;15.20;4.18;;;;;;;;;;5022842;28;20446;-73
2021/11/17 17:33:28;;;;;;;12.68;4.47;;;;;;;;;;5022647;28;20033;-73
2021/11/17 17:35:57;;;;;;;13.57;4.50;;;;;;;;;;5023751;28;20041;-73
2021/11/17 17:38:26;;;;;;;13.00;5.32;;;;;;;;;;5024580;28;20037;-73
2021/11/17 17:40:57;;;;;;;13.43;5.20;;;;;;;;;;5029726;28;20037;-73
2021/11/17 17:43:28;;;;;;;21.75;7.47;;;;;;;;;;5026871;28;20117;-74
2021/11/17 17:45:56;;;;;;;14.20;5.63;;;;;;;;;;5026042;28;20034;-73